• Join FlightAware (Why Join?)
  • Login
  • US Flag 
Trick or treat! (Boo!!) 
01:03AM EDT


 

Airport Tracker/Info


-or-


 

Live Flight TrackerFlight Track Log ✈ N45DJ ✈ 11-Jun-2014 ✈ KHSV - KCHA

Flight Track Log - Related Links

Times and Time Zones

All times are in EDT time to prevent confusion due to time zone crossing. See the N45DJ flight status page for this flight to view local times or setup timezone preferences in your user account.

Time Position Orientation Groundspeed Altitude Reporting Facility
EDT Latitude Longitude Course Direction KTS MPH feet Rate Location/Type
11:18AM 34.5417 -86.7833 73° East 158 182 6,400  Level Memphis Center
11:19AM 34.5383 -86.8411 266° West 167 192 8,500 1,680 Climbing Memphis Center
11:20AM 34.5389 -86.9033 271° West 177 204 9,900 1,560 Climbing Memphis Center
11:21AM 34.5389 -86.9806 270° West 222 255 11,800 1,980 Climbing Memphis Center
11:22AM 34.5450 -87.0383 277° West 186 214 14,100 2,100 Climbing Memphis Center
11:23AM 34.5475 -87.0989 273° West 156 180 16,200 1,680 Climbing Memphis Center
11:24AM 34.8041 -86.1145 74° East  Level FlightAware Approximate
11:24AM 34.5481 -87.1486 271° West 153 176 17,700  Level Memphis Center
11:25AM 34.6596 -86.7055 69° East  Level FlightAware Approximate
11:25AM 34.5517 -87.1997 275° West 151 174 19,100  Level Memphis Center
11:26AM 34.6802 -86.6291 73° East  Level FlightAware Approximate
11:26AM 34.6050 -87.2008 359° North 209 241 20,000  Level Memphis Center
11:27AM 34.6325 -87.1211 67° East 266 306 20,000  Level Memphis Center
11:28AM 34.6367 -87.0222 87° East 288 331 20,000  Level Memphis Center
11:30AM 34.6181 -86.8100 96° East 303 349 20,000  Level Memphis Center
11:31AM 34.5686 -86.8450 210° Southwest 254 292 20,000  Level Memphis Center
11:32AM 34.5667 -86.9361 269° West 267 307 20,000  Level Memphis Center
11:33AM 34.5633 -87.0331 268° West 282 325 20,000  Level Memphis Center
11:34AM 34.5586 -87.1514 267° West 290 334 20,000  Level Memphis Center
11:35AM 34.5992 -87.2111 310° West 275 316 20,000  Level Memphis Center
11:36AM 34.6378 -87.1403 56° Northeast 273 314 20,000  Level Memphis Center
11:37AM 34.6347 -87.0417 92° East 287 330 20,000  Level Memphis Center
11:38AM 34.6361 -86.9386 89° East 299 344 20,000  Level Memphis Center
11:39AM 34.6356 -86.8381 90° East 300 345 20,000  Level Memphis Center
11:40AM 34.5653 -86.8178 167° South 285 328 20,000  Level Memphis Center
11:41AM 34.5564 -86.9122 264° West 287 330 20,000  Level Memphis Center
11:43AM 34.5536 -87.0119 268° West 290 334 20,000  Level Memphis Center
11:44AM 34.5497 -87.1119 267° West 295 339 20,000  Level Memphis Center
11:45AM 34.5714 -87.2022 286° West 308 354 20,000  Level Memphis Center
11:46AM 34.6450 -87.1722 19° North 312 359 20,000  Level Memphis Center
11:47AM 34.6400 -87.0589 93° East 286 329 20,000  Level Memphis Center
11:48AM 34.6358 -86.9569 93° East 300 345 20,000  Level Memphis Center
11:49AM 34.6358 -86.8550 90° East 305 351 20,000  Level Memphis Center
11:50AM 34.5842 -86.8053 142° Southeast 285 328 20,000  Level Memphis Center
11:51AM 34.5583 -86.8889 249° West 283 326 20,000  Level Memphis Center
11:52AM 34.5564 -86.9878 269° West 292 336 20,000  Level Memphis Center
11:53AM 34.5506 -87.1072 267° West 294 338 20,000 -60 Level Memphis Center
11:54AM 34.5525 -87.2075 271° West 305 351 19,900  Descending Memphis Center
11:55AM 34.6203 -87.2106 358° North 283 326 20,000  Climbing Memphis Center
11:56AM 34.6397 -87.1183 76° East 287 330 20,000  Level Memphis Center
11:57AM 34.6372 -87.0172 92° East 297 342 20,000  Level Memphis Center
11:58AM 34.6361 -86.8942 91° East 299 344 20,000  Level Memphis Center
11:59AM 34.6122 -86.8050 108° East 315 362 20,000  Level Memphis Center
12:00PM 34.5583 -86.8497 214° Southwest 289 333 20,000  Level Memphis Center
12:01PM 34.5536 -86.9472 267° West 288 331 20,000  Level Memphis Center
12:02PM 34.5494 -87.0475 267° West 295 339 20,000  Level Memphis Center
12:03PM 34.5433 -87.1681 267° West 297 342 20,000  Level Memphis Center
12:04PM 34.5953 -87.2297 316° Northwest 301 346 20,000  Level Memphis Center
12:05PM 34.6422 -87.1536 53° Northeast 306 352 20,000  Level Memphis Center
12:06PM 34.6364 -87.0539 94° East 299 344 20,000  Level Memphis Center
12:07PM 34.6361 -86.9519 90° East 299 344 20,000  Level Memphis Center
12:08PM 34.6358 -86.8506 90° East 300 345 20,000  Level Memphis Center
12:09PM 34.5658 -86.8208 161° South 290 334 20,000  Level Memphis Center
12:11PM 34.5539 -86.9164 261° West 291 335 20,000  Level Memphis Center
12:12PM 34.5506 -87.0172 268° West 294 338 20,000  Level Memphis Center
12:13PM 34.5458 -87.1178 267° West 297 342 20,000 -60 Level Memphis Center
12:14PM 34.5650 -87.2097 284° West 304 350 19,900  Descending Memphis Center
12:15PM 34.6403 -87.1583 29° Northeast 304 350 20,000  Climbing Memphis Center
12:16PM 34.6394 -87.0583 91° East 300 345 20,000  Level Memphis Center
12:17PM 34.6356 -86.9567 93° East 300 345 20,000  Level Memphis Center
12:18PM 34.6358 -86.8544 90° East 300 345 20,000  Level Memphis Center
12:19PM 34.5825 -86.8050 143° Southeast 296 341 20,000  Level Memphis Center
12:20PM 34.5558 -86.8889 249° West 293 337 20,000  Level Memphis Center
12:21PM 34.5508 -87.0078 267° West 294 338 20,000  Level Memphis Center
12:22PM 34.5458 -87.1092 267° West 295 339 20,000 -60 Level Memphis Center
12:23PM 34.5536 -87.2081 275° West 303 349 19,900  Descending Memphis Center
12:24PM 34.6269 -87.2003 North 302 348 20,000  Climbing Memphis Center
12:25PM 34.6394 -87.1022 81° East 296 341 20,000  Level Memphis Center
12:26PM 34.6372 -86.9997 91° East 299 344 20,000  Level Memphis Center
12:27PM 34.6358 -86.8781 91° East 299 344 20,000  Level Memphis Center
12:28PM 34.5936 -86.8117 128° Southeast 295 339 20,000  Level Memphis Center
12:29PM 34.5583 -86.8867 240° Southwest 288 331 20,000  Level Memphis Center
12:30PM 34.5542 -86.9867 267° West 292 336 20,000  Level Memphis Center
12:31PM 34.5489 -87.0867 266° West 296 341 20,000  Level Memphis Center
12:32PM 34.5464 -87.1875 268° West 297 342 20,000  Level Memphis Center
12:33PM 34.6336 -87.2058 350° North 321 369 20,000  Level Memphis Center
12:34PM 34.6403 -87.1100 85° East 297 342 20,000  Level Memphis Center
12:35PM 34.6358 -87.0078 93° East 303 349 20,000  Level Memphis Center
12:36PM 34.6364 -86.9022 90° East 308 354 20,000  Level Memphis Center
12:37PM 34.6194 -86.8078 102° East 308 354 20,000  Level Memphis Center
12:38PM 34.5583 -86.8344 200° South 290 334 20,000  Level Memphis Center
12:39PM 34.5519 -86.9522 266° West 290 334 20,000  Level Memphis Center
12:41PM 34.5472 -87.0536 267° West 296 341 20,000  Level Memphis Center
12:42PM 34.5428 -87.1553 267° West 300 345 20,000  Level Memphis Center
12:43PM 34.5878 -87.2203 310° West 302 348 20,000  Level Memphis Center
12:44PM 34.6375 -87.1503 49° Northeast 293 337 20,000  Level Memphis Center
12:45PM 34.6369 -87.0281 90° East 302 348 20,000  Level Memphis Center
12:46PM 34.6361 -86.9261 91° East 302 348 20,000  Level Memphis Center
12:47PM 34.6347 -86.8269 91° East 300 345 20,000  Level Memphis Center
12:48PM 34.5767 -86.8081 165° South 275 316 20,000  Level Memphis Center
12:49PM 34.5983 -86.8850 289° West 289 333 20,000  Level Memphis Center
12:50PM 34.6794 -86.8478 21° North 329 379 20,000  Level Memphis Center
12:51PM 34.7131 -86.7158 73° East 338 389 20,000  Level Memphis Center
12:52PM 34.7372 -86.6019 75° East 345 397 20,000  Level Memphis Center
12:53PM 34.7683 -86.4911 71° East 346 398 20,000  Level Memphis Center
12:54PM 34.7894 -86.3761 77° East 351 404 20,000 -960 Level Memphis Center
12:56PM 34.8408 -86.1322 76° East 364 419 17,200 -2,220 Descending Memphis Center
12:57PM 34.8675 -86.0061 76° East 380 437 13,300 -3,000 Descending Memphis Center
12:58PM 34.8931 -85.8892 75° East 364 419 11,000 -1,140 Descending Memphis Center
12:59PM 34.9219 -85.7492 76° East 357 411 11,000 -720 Level Memphis Center
01:00PM 34.9689 -85.6489 60° Northeast 344 396 9,600 -1,320 Descending Memphis Center
01:01PM 35.0086 -85.5558 62° Northeast 320 368 8,300 -1,320 Descending Memphis Center
01:02PM 35.0478 -85.4692 61° Northeast 299 344 6,900 -1,860 Descending Memphis Center
01:03PM 35.0897 -85.3817 60° Northeast 298 343 4,500 -1,620 Descending Memphis Center
01:04PM 35.1431 -85.3161 45° Northeast 285 328 3,600 -480 Descending Memphis Center
01:05PM 35.2017 -85.2461 44° Northeast 258 297 3,600  Level Memphis Center
01:06PM 35.2028 -85.1708 89° East 238 274 3,600 -180 Level Memphis Center
01:07PM 35.1517 -85.1631 173° South 215 247 3,300 -840 Descending Memphis Center
01:08PM 35.1014 -85.1797 195° South 197 227 1,900 -1,380 Descending Memphis Center